createdAt,value
2022-07-29T00:00:00.993Z,99507.47
2022-07-29T00:02:28.983Z,99505.22
2022-07-29T00:04:55.751Z,99494.06
2022-07-29T00:07:22.354Z,99496.84
2022-07-29T00:09:51.965Z,99509.56
2022-07-29T00:12:21.479Z,99509.06
2022-07-29T00:14:54.757Z,99505.78
2022-07-29T00:17:21.563Z,99498.00
2022-07-29T00:19:48.287Z,99510.69
2022-07-29T00:22:15.021Z,99509.28
2022-07-29T00:24:41.951Z,99506.94
2022-07-29T00:27:08.614Z,99501.53
2022-07-29T00:29:35.648Z,99495.28
2022-07-29T00:32:03.417Z,99490.03
2022-07-29T00:34:48.754Z,99477.59
2022-07-29T00:37:15.370Z,99484.13
2022-07-29T00:39:42.207Z,99484.22
2022-07-29T00:42:09.115Z,99482.47
2022-07-29T00:44:42.790Z,99475.53
2022-07-29T00:47:11.224Z,99478.22
2022-07-29T00:49:40.611Z,99475.53
2022-07-29T00:52:08.474Z,99474.53
2022-07-29T00:54:37.418Z,99473.22
2022-07-29T00:57:10.720Z,99470.09
2022-07-29T00:59:37.474Z,99468.78
2022-07-29T01:02:04.727Z,99465.31
2022-07-29T01:04:33.091Z,99456.59
2022-07-29T01:07:02.154Z,99451.38
2022-07-29T01:09:45.449Z,99450.50
2022-07-29T01:12:17.931Z,99452.31
2022-07-29T01:14:45.470Z,99454.34
2022-07-29T01:17:19.315Z,99448.22
2022-07-29T01:20:04.964Z,99445.78
2022-07-29T01:23:12.392Z,99445.94
2022-07-29T01:25:45.181Z,99443.31
2022-07-29T01:28:42.599Z,99442.38
2022-07-29T01:31:16.565Z,99430.03
2022-07-29T01:33:58.708Z,99426.72
2022-07-29T01:36:36.363Z,99426.03
2022-07-29T01:39:12.392Z,99424.41
2022-07-29T01:41:49.269Z,99419.22
2022-07-29T01:44:21.335Z,99419.22
2022-07-29T01:46:57.175Z,99416.44
2022-07-29T01:49:36.650Z,99417.38
2022-07-29T01:52:09.884Z,99416.53
2022-07-29T01:54:56.609Z,99417.63
2022-07-29T01:57:28.868Z,99425.03
2022-07-29T01:59:57.300Z,99419.69
2022-07-29T02:02:25.102Z,99422.47
2022-07-29T02:04:53.382Z,99421.44
2022-07-29T02:07:23.037Z,99422.16
2022-07-29T02:09:52.013Z,99418.31
2022-07-29T02:12:20.505Z,99421.66
2022-07-29T02:14:55.656Z,99417.47
2022-07-29T02:17:27.419Z,99420.97
2022-07-29T02:20:00.199Z,99417.28
2022-07-29T02:22:30.651Z,99423.56
2022-07-29T02:24:59.576Z,99419.94
2022-07-29T02:27:29.544Z,99412.69
2022-07-29T02:29:59.075Z,99408.13
2022-07-29T02:32:28.447Z,99406.19
2022-07-29T02:34:56.892Z,99408.88
2022-07-29T02:37:25.100Z,99406.88
2022-07-29T02:39:55.155Z,99398.28
2022-07-29T02:42:24.031Z,99409.91
2022-07-29T02:44:51.490Z,99413.50
2022-07-29T02:47:25.222Z,99417.22
2022-07-29T02:50:03.697Z,99415.31
2022-07-29T02:52:46.363Z,99419.75
2022-07-29T02:55:34.531Z,99415.94
2022-07-29T02:58:12.828Z,99407.88
2022-07-29T03:00:41.548Z,99406.03
2022-07-29T03:03:12.288Z,99411.41
2022-07-29T03:05:40.627Z,99415.06
2022-07-29T03:08:10.399Z,99414.06
2022-07-29T03:10:40.128Z,99403.28
2022-07-29T03:13:09.177Z,99408.88
2022-07-29T03:15:36.853Z,99415.19
2022-07-29T03:18:04.246Z,99414.25
2022-07-29T03:20:30.967Z,99409.00
2022-07-29T03:22:57.734Z,99416.13
2022-07-29T03:25:24.456Z,99410.66
2022-07-29T03:27:51.120Z,99414.91
2022-07-29T03:30:18.330Z,99413.75
2022-07-29T03:32:52.103Z,99402.88
2022-07-29T03:35:20.679Z,99401.78
2022-07-29T03:37:47.735Z,99403.44
2022-07-29T03:40:23.966Z,99404.19
2022-07-29T03:42:54.470Z,99405.94
2022-07-29T03:45:22.863Z,99401.34
2022-07-29T03:48:02.200Z,99403.00
2022-07-29T03:50:31.371Z,99398.81
2022-07-29T03:52:59.006Z,99396.06
2022-07-29T03:55:27.629Z,99395.78
2022-07-29T03:57:56.944Z,99395.88
2022-07-29T04:00:25.562Z,99395.72
2022-07-29T04:02:52.394Z,99386.75
2022-07-29T04:05:20.124Z,99393.88
2022-07-29T04:07:48.759Z,99386.75
2022-07-29T04:10:30.250Z,99394.75
2022-07-29T04:12:58.449Z,99395.63
2022-07-29T04:15:25.290Z,99396.75
2022-07-29T04:17:52.019Z,99398.31
2022-07-29T04:20:19.622Z,99403.63
2022-07-29T04:22:46.294Z,99406.84
2022-07-29T04:25:13.000Z,99409.19
2022-07-29T04:27:59.563Z,99402.59
2022-07-29T04:30:26.270Z,99409.22
2022-07-29T04:32:53.339Z,99407.66
2022-07-29T04:35:20.924Z,99399.56
2022-07-29T04:37:47.832Z,99396.44
2022-07-29T04:40:14.479Z,99398.78
2022-07-29T04:42:46.413Z,99395.56
2022-07-29T04:45:13.426Z,99399.47
2022-07-29T04:47:41.273Z,99407.72
2022-07-29T04:50:08.717Z,99409.63
2022-07-29T04:52:36.398Z,99397.19
2022-07-29T04:55:04.321Z,99400.78
2022-07-29T04:57:31.336Z,99403.81
2022-07-29T04:59:58.036Z,99397.53
2022-07-29T05:02:24.794Z,99388.88
2022-07-29T05:04:51.677Z,99392.56
2022-07-29T05:07:18.501Z,99387.34
2022-07-29T05:09:45.574Z,99388.47
2022-07-29T05:12:13.012Z,99395.75
2022-07-29T05:14:39.680Z,99394.94
2022-07-29T05:17:06.423Z,99394.25
2022-07-29T05:19:32.981Z,99380.59
2022-07-29T05:22:00.984Z,99383.88
2022-07-29T05:24:27.545Z,99375.94
2022-07-29T05:26:54.548Z,99376.63
2022-07-29T05:29:44.917Z,99386.50
2022-07-29T05:32:08.513Z,99389.84
2022-07-29T05:34:35.340Z,99388.13
2022-07-29T05:37:02.258Z,99382.34
2022-07-29T05:39:47.616Z,99385.56
2022-07-29T05:42:15.604Z,99385.25
2022-07-29T05:44:42.382Z,99388.38
2022-07-29T05:47:09.006Z,99385.00
2022-07-29T05:49:35.723Z,99387.56
2022-07-29T05:52:02.773Z,99384.91
2022-07-29T05:54:29.673Z,99386.00
2022-07-29T05:56:56.147Z,99385.47
2022-07-29T05:59:24.966Z,99385.72
2022-07-29T06:01:58.319Z,99388.53
2022-07-29T06:04:25.496Z,99383.84
2022-07-29T06:06:52.215Z,99386.06
2022-07-29T06:09:19.176Z,99378.81
2022-07-29T06:11:45.854Z,99383.69
2022-07-29T06:14:12.640Z,99383.88
2022-07-29T06:16:39.572Z,99387.78
2022-07-29T06:19:06.607Z,99392.56
2022-07-29T06:21:33.342Z,99396.06
2022-07-29T06:24:16.181Z,99389.25
2022-07-29T06:26:43.830Z,99400.41
2022-07-29T06:30:07.842Z,99400.66
2022-07-29T06:32:38.958Z,99394.91
2022-07-29T06:35:46.144Z,99397.03
2022-07-29T06:38:40.356Z,99392.44
2022-07-29T06:41:30.809Z,99397.66
2022-07-29T06:44:31.297Z,99405.31
2022-07-29T06:47:30.578Z,99394.03
2022-07-29T06:53:37.456Z,99394.94
2022-07-29T06:56:29.634Z,99398.47
2022-07-29T07:02:36.583Z,99409.38
2022-07-29T07:05:28.464Z,99404.97
2022-07-29T07:08:32.250Z,99409.63
2022-07-29T07:11:40.234Z,99414.88
2022-07-29T07:14:29.048Z,99409.53
2022-07-29T07:16:57.945Z,99408.31
2022-07-29T07:19:28.474Z,99414.66
2022-07-29T07:22:13.781Z,99422.16
2022-07-29T07:25:02.186Z,99409.09
2022-07-29T07:27:29.493Z,99411.00
2022-07-29T07:29:57.813Z,99403.97
2022-07-29T07:32:41.444Z,99400.69
2022-07-29T07:38:14.161Z,99403.91
2022-07-29T07:40:42.407Z,99403.75
2022-07-29T07:43:09.271Z,99401.88
2022-07-29T07:45:38.368Z,99395.69
2022-07-29T07:48:05.733Z,99399.84
2022-07-29T07:50:33.227Z,99389.03
2022-07-29T07:52:59.858Z,99394.66
2022-07-29T07:55:27.587Z,99391.19
2022-07-29T07:57:55.685Z,99388.28
2022-07-29T08:00:23.157Z,99397.28
2022-07-29T08:02:56.183Z,99386.25
2022-07-29T08:05:22.896Z,99375.81
2022-07-29T08:07:49.752Z,99382.19
2022-07-29T08:10:39.972Z,99379.53
2022-07-29T08:13:44.635Z,99375.38
2022-07-29T08:16:13.138Z,99378.13
2022-07-29T08:18:43.420Z,99377.03
2022-07-29T08:21:16.344Z,99376.22
2022-07-29T08:23:57.770Z,99369.50
2022-07-29T08:26:27.302Z,99366.75
2022-07-29T08:32:05.680Z,99362.09
2022-07-29T08:34:32.984Z,99367.63
2022-07-29T08:40:14.775Z,99368.16
2022-07-29T08:42:42.703Z,99360.50
2022-07-29T08:45:10.051Z,99359.84
2022-07-29T08:47:40.962Z,99362.66
2022-07-29T08:50:26.831Z,99366.00
2022-07-29T08:53:15.714Z,99365.53
2022-07-29T08:55:51.377Z,99371.03
2022-07-29T08:58:23.262Z,99362.81
2022-07-29T09:07:33.002Z,99355.59
2022-07-29T09:10:16.109Z,99350.84
2022-07-29T09:12:48.435Z,99343.97
2022-07-29T09:15:19.100Z,99344.50
2022-07-29T09:17:47.093Z,99340.03
2022-07-29T09:20:19.546Z,99336.78
2022-07-29T09:22:50.446Z,99335.59
2022-07-29T09:25:35.843Z,99325.66
2022-07-29T09:28:18.855Z,99331.09
2022-07-29T09:31:12.453Z,99326.22
2022-07-29T09:33:41.562Z,99325.25
2022-07-29T09:36:13.230Z,99326.16
2022-07-29T09:38:40.413Z,99318.50
2022-07-29T09:45:30.981Z,99314.44
2022-07-29T09:48:18.637Z,99315.03
2022-07-29T09:50:48.180Z,99311.53
2022-07-29T09:53:38.682Z,99317.81
2022-07-29T09:56:15.667Z,99318.03
2022-07-29T09:58:42.364Z,99327.16
2022-07-29T10:01:09.240Z,99326.25
2022-07-29T10:06:34.509Z,99318.59
2022-07-29T10:15:53.744Z,99319.53
2022-07-29T10:18:21.396Z,99318.72
2022-07-29T10:20:49.412Z,99316.47
2022-07-29T10:23:16.161Z,99319.59
2022-07-29T10:25:46.387Z,99326.28
2022-07-29T10:28:16.553Z,99327.41
2022-07-29T10:30:45.711Z,99318.84
2022-07-29T10:33:12.956Z,99315.72
2022-07-29T10:35:48.717Z,99314.09
2022-07-29T10:46:46.146Z,99313.41
2022-07-29T10:53:00.022Z,99306.69
2022-07-29T10:55:43.428Z,99298.75
2022-07-29T10:58:18.861Z,99306.09
2022-07-29T11:00:50.882Z,99309.53
2022-07-29T11:03:50.775Z,99298.25
2022-07-29T11:06:26.272Z,99303.44
2022-07-29T11:09:17.541Z,99296.47
2022-07-29T11:11:51.399Z,99291.59
2022-07-29T11:14:20.071Z,99291.88
2022-07-29T11:17:05.987Z,99289.31
2022-07-29T11:19:35.030Z,99292.38
2022-07-29T11:22:32.668Z,99291.91
2022-07-29T11:25:15.054Z,99287.38
2022-07-29T11:27:45.892Z,99292.75
2022-07-29T11:30:13.210Z,99292.28
2022-07-29T11:32:44.667Z,99293.41
2022-07-29T11:35:17.084Z,99282.97
2022-07-29T11:40:33.820Z,99276.97
2022-07-29T11:43:00.521Z,99280.03
2022-07-29T11:45:42.497Z,99278.44
2022-07-29T11:48:27.891Z,99277.19
2022-07-29T11:50:59.935Z,99281.88
2022-07-29T11:53:28.749Z,99273.81
2022-07-29T11:56:00.251Z,99282.59
2022-07-29T11:58:27.219Z,99268.22
2022-07-29T12:00:55.239Z,99273.16
2022-07-29T12:03:33.545Z,99273.75
2022-07-29T12:06:02.420Z,99268.53
2022-07-29T12:07:01.664Z,99288.28
2022-07-29T12:08:29.002Z,99279.13
2022-07-29T12:10:57.358Z,99277.41
2022-07-29T12:13:37.573Z,99277.53
2022-07-29T12:16:04.968Z,99266.25
2022-07-29T12:18:32.634Z,99267.06
2022-07-29T12:21:06.068Z,99263.03
2022-07-29T12:23:34.683Z,99259.75
2022-07-29T12:26:11.079Z,99270.22
2022-07-29T12:28:48.275Z,99266.59
2022-07-29T12:31:43.329Z,99262.25
2022-07-29T12:34:15.939Z,99255.38
2022-07-29T12:36:43.843Z,99247.78
2022-07-29T12:39:11.631Z,99254.44
2022-07-29T12:41:38.483Z,99251.91
2022-07-29T12:44:10.989Z,99248.75
2022-07-29T12:46:38.090Z,99257.66
2022-07-29T12:49:06.733Z,99247.53
2022-07-29T12:51:39.397Z,99254.91
2022-07-29T12:54:14.299Z,99254.44
2022-07-29T12:56:43.568Z,99244.00
2022-07-29T12:59:14.047Z,99250.91
2022-07-29T13:01:40.602Z,99242.25
2022-07-29T13:04:07.160Z,99241.31
2022-07-29T13:06:46.168Z,99234.84
2022-07-29T13:09:24.919Z,99235.06
2022-07-29T13:12:04.918Z,99239.84
2022-07-29T13:14:38.520Z,99232.16
2022-07-29T13:17:08.475Z,99237.75
2022-07-29T13:19:36.262Z,99234.88
2022-07-29T13:22:04.514Z,99238.97
2022-07-29T13:24:31.224Z,99234.16
2022-07-29T13:27:07.585Z,99224.72
2022-07-29T13:29:34.226Z,99232.47
2022-07-29T13:32:03.411Z,99225.88
2022-07-29T13:34:29.922Z,99230.06
2022-07-29T13:36:56.628Z,99229.28
2022-07-29T13:39:23.115Z,99229.53
2022-07-29T13:41:50.485Z,99224.91
2022-07-29T13:44:17.848Z,99220.00
2022-07-29T13:46:44.296Z,99214.00
2022-07-29T13:49:12.296Z,99208.03
2022-07-29T13:51:39.276Z,99204.63
2022-07-29T13:54:09.029Z,99207.56
2022-07-29T13:56:35.507Z,99214.06
2022-07-29T13:59:02.385Z,99206.63
2022-07-29T14:01:31.323Z,99200.47
2022-07-29T14:03:58.135Z,99210.09
2022-07-29T14:06:24.614Z,99208.28
2022-07-29T14:08:52.056Z,99201.16
2022-07-29T14:11:18.617Z,99201.91
2022-07-29T14:13:45.731Z,99197.94
2022-07-29T14:16:12.642Z,99196.47
2022-07-29T14:18:39.141Z,99190.41
2022-07-29T14:21:05.752Z,99193.06
2022-07-29T14:23:35.427Z,99192.59
2022-07-29T14:26:15.070Z,99194.75
2022-07-29T14:28:47.419Z,99192.63
2022-07-29T14:31:13.906Z,99189.22
2022-07-29T14:33:40.469Z,99182.41
2022-07-29T14:36:07.988Z,99187.56
2022-07-29T14:38:34.529Z,99196.28
2022-07-29T14:41:08.444Z,99193.81
2022-07-29T14:43:38.793Z,99181.19
2022-07-29T14:46:08.920Z,99188.38
2022-07-29T14:48:36.085Z,99184.72
2022-07-29T14:51:06.646Z,99185.56
2022-07-29T14:53:33.311Z,99179.50
2022-07-29T14:56:15.090Z,99181.78
2022-07-29T14:58:49.201Z,99181.44
2022-07-29T15:01:18.469Z,99181.25
2022-07-29T15:03:45.055Z,99192.47
2022-07-29T15:06:11.604Z,99192.56
2022-07-29T15:08:38.129Z,99198.00
2022-07-29T15:11:04.615Z,99189.69
2022-07-29T15:13:31.163Z,99194.88
2022-07-29T15:16:00.198Z,99193.38
2022-07-29T15:18:26.986Z,99197.44
2022-07-29T15:20:53.490Z,99194.31
2022-07-29T15:23:20.802Z,99198.63
2022-07-29T15:25:47.322Z,99192.94
2022-07-29T15:28:13.800Z,99194.81
2022-07-29T15:30:43.132Z,99188.75
2022-07-29T15:33:10.470Z,99187.28
2022-07-29T15:35:40.029Z,99190.47
2022-07-29T15:38:07.391Z,99184.47
2022-07-29T15:40:34.245Z,99184.94
2022-07-29T15:43:06.679Z,99175.75
2022-07-29T15:45:40.526Z,99177.31
2022-07-29T15:48:08.615Z,99185.00
2022-07-29T15:50:35.777Z,99182.44
2022-07-29T15:53:03.152Z,99181.84
2022-07-29T15:55:29.621Z,99169.09
2022-07-29T15:58:00.422Z,99163.88
2022-07-29T16:00:27.173Z,99158.38
2022-07-29T16:02:54.325Z,99155.72
2022-07-29T16:05:20.898Z,99159.16
2022-07-29T16:07:47.390Z,99161.66
2022-07-29T16:10:13.991Z,99159.59
2022-07-29T16:12:40.458Z,99160.63
2022-07-29T16:15:10.411Z,99154.06
2022-07-29T16:17:38.070Z,99155.88
2022-07-29T16:20:06.177Z,99157.41
2022-07-29T16:22:32.790Z,99154.16
2022-07-29T16:24:59.281Z,99147.38
2022-07-29T16:27:33.197Z,99144.75
2022-07-29T16:30:06.104Z,99147.03
2022-07-29T16:32:32.555Z,99147.19
2022-07-29T16:34:58.925Z,99140.84
2022-07-29T16:37:25.394Z,99136.47
2022-07-29T16:39:57.639Z,99133.09
2022-07-29T16:42:44.393Z,99136.53
2022-07-29T16:45:10.755Z,99133.03
2022-07-29T16:47:37.235Z,99141.22
2022-07-29T16:50:04.927Z,99140.06
2022-07-29T16:52:31.403Z,99138.28
2022-07-29T16:54:57.788Z,99142.41
2022-07-29T16:57:24.369Z,99131.50
2022-07-29T16:59:51.081Z,99138.28
2022-07-29T17:02:18.005Z,99142.47
2022-07-29T17:04:44.559Z,99144.06
2022-07-29T17:07:11.021Z,99138.53
2022-07-29T17:09:37.759Z,99132.94
2022-07-29T17:12:04.626Z,99139.59
2022-07-29T17:14:31.655Z,99134.63
2022-07-29T17:17:01.409Z,99131.84
2022-07-29T17:19:34.000Z,99130.72
2022-07-29T17:22:19.402Z,99130.63
2022-07-29T17:24:46.970Z,99125.66
2022-07-29T17:27:13.543Z,99133.88
2022-07-29T17:32:16.812Z,99129.09
2022-07-29T17:34:43.616Z,99134.13
2022-07-29T17:37:11.621Z,99128.66
2022-07-29T17:39:40.896Z,99139.22
2022-07-29T17:42:13.950Z,99129.97
2022-07-29T17:44:40.985Z,99134.69
2022-07-29T17:47:15.892Z,99130.31
2022-07-29T17:49:43.601Z,99133.59
2022-07-29T17:52:10.559Z,99129.38
2022-07-29T17:54:37.259Z,99135.06
2022-07-29T17:57:10.433Z,99128.94
2022-07-29T17:59:37.272Z,99133.41
2022-07-29T18:02:04.371Z,99137.72
2022-07-29T18:04:31.492Z,99136.69
2022-07-29T18:06:58.190Z,99138.25
2022-07-29T18:09:24.838Z,99134.78
2022-07-29T18:11:52.837Z,99133.94
2022-07-29T18:14:19.402Z,99130.88
2022-07-29T18:16:45.916Z,99136.22
2022-07-29T18:19:12.443Z,99131.72
2022-07-29T18:21:45.987Z,99141.53
2022-07-29T18:24:21.862Z,99138.25
2022-07-29T18:26:49.684Z,99136.84
2022-07-29T18:29:16.397Z,99134.25
2022-07-29T18:31:43.779Z,99144.19
2022-07-29T18:34:10.467Z,99143.84
2022-07-29T18:36:37.418Z,99147.75
2022-07-29T18:39:04.141Z,99140.19
2022-07-29T18:41:30.728Z,99155.28
2022-07-29T18:43:57.879Z,99152.00
2022-07-29T18:46:24.441Z,99152.66
2022-07-29T18:48:52.177Z,99152.09
2022-07-29T18:51:18.619Z,99142.22
2022-07-29T18:53:45.183Z,99142.34
2022-07-29T18:56:11.888Z,99140.91
2022-07-29T18:58:39.301Z,99133.69
2022-07-29T19:01:07.370Z,99137.25
2022-07-29T19:03:34.089Z,99144.84
2022-07-29T19:06:00.981Z,99144.75
2022-07-29T19:08:27.585Z,99147.19
2022-07-29T19:10:54.000Z,99157.84
2022-07-29T19:13:21.296Z,99155.19
2022-07-29T19:15:48.060Z,99162.28
2022-07-29T19:18:14.550Z,99159.06
2022-07-29T19:20:42.043Z,99151.94
2022-07-29T19:23:09.214Z,99165.72
2022-07-29T19:25:53.579Z,99172.50
2022-07-29T19:28:23.653Z,99177.00
2022-07-29T19:30:50.362Z,99175.03
2022-07-29T19:33:18.901Z,99185.25
2022-07-29T19:35:45.958Z,99175.66
2022-07-29T19:38:13.688Z,99186.47
2022-07-29T19:40:40.638Z,99179.13
2022-07-29T19:43:49.951Z,99184.31
2022-07-29T19:45:54.818Z,99172.06
2022-07-29T19:48:21.937Z,99166.69
2022-07-29T19:50:48.832Z,99170.28
2022-07-29T19:53:15.344Z,99172.78
2022-07-29T19:55:42.425Z,99179.75
2022-07-29T19:58:08.952Z,99182.16
2022-07-29T20:00:35.512Z,99179.34
2022-07-29T20:03:04.704Z,99174.75
2022-07-29T20:05:31.666Z,99183.81
2022-07-29T20:07:58.557Z,99188.91
2022-07-29T20:10:25.139Z,99197.66
2022-07-29T20:12:53.194Z,99197.28
2022-07-29T20:15:21.613Z,99195.06
2022-07-29T20:17:48.304Z,99201.88
2022-07-29T20:20:15.168Z,99196.63
2022-07-29T20:22:41.677Z,99196.00
2022-07-29T20:25:09.922Z,99197.31
2022-07-29T20:27:40.376Z,99198.91
2022-07-29T20:30:07.807Z,99200.47
2022-07-29T20:32:34.482Z,99194.84
2022-07-29T20:35:01.085Z,99194.50
2022-07-29T20:37:27.637Z,99198.53
2022-07-29T20:39:54.182Z,99197.81
2022-07-29T20:42:20.621Z,99197.75
2022-07-29T20:44:49.219Z,99194.44
2022-07-29T20:47:16.001Z,99192.81
2022-07-29T20:49:42.569Z,99193.28
2022-07-29T20:52:09.000Z,99191.84
2022-07-29T20:54:35.453Z,99190.44
2022-07-29T20:57:02.234Z,99194.56
2022-07-29T20:59:28.867Z,99191.75
2022-07-29T21:01:56.978Z,99185.97
2022-07-29T21:04:30.487Z,99191.38
2022-07-29T21:06:58.110Z,99193.38
2022-07-29T21:09:24.806Z,99197.03
2022-07-29T21:11:51.233Z,99203.72
2022-07-29T21:14:46.720Z,99204.44
2022-07-29T21:17:14.110Z,99206.38
2022-07-29T21:19:40.631Z,99206.25
2022-07-29T21:22:07.127Z,99213.19
2022-07-29T21:24:33.818Z,99212.06
2022-07-29T21:27:21.062Z,99201.72
2022-07-29T21:29:48.165Z,99204.19
2022-07-29T21:32:14.733Z,99205.31
2022-07-29T21:34:55.982Z,99206.50
2022-07-29T21:37:22.475Z,99211.50
2022-07-29T21:39:49.376Z,99211.09
2022-07-29T21:42:15.844Z,99214.13
2022-07-29T21:44:42.345Z,99219.31
2022-07-29T21:47:09.641Z,99218.56
2022-07-29T21:49:36.157Z,99213.84
2022-07-29T21:52:04.531Z,99207.13
2022-07-29T21:54:31.491Z,99203.94
2022-07-29T21:56:58.214Z,99205.38
2022-07-29T21:59:24.958Z,99208.69
2022-07-29T22:01:51.796Z,99200.09
2022-07-29T22:04:18.516Z,99210.84
2022-07-29T22:06:44.950Z,99206.81
2022-07-29T22:09:11.401Z,99200.66
2022-07-29T22:11:37.898Z,99200.94
2022-07-29T22:14:05.235Z,99208.97
2022-07-29T22:16:31.832Z,99208.69
2022-07-29T22:18:58.509Z,99204.53
2022-07-29T22:21:24.975Z,99210.13
2022-07-29T22:23:51.493Z,99204.81
2022-07-29T22:26:18.012Z,99195.03
2022-07-29T22:28:45.613Z,99196.19
2022-07-29T22:31:12.426Z,99199.94
2022-07-29T22:33:38.968Z,99200.09
2022-07-29T22:36:05.717Z,99202.38
2022-07-29T22:38:32.250Z,99195.34
2022-07-29T22:41:01.539Z,99189.31
2022-07-29T22:43:29.896Z,99193.47
2022-07-29T22:45:56.460Z,99198.19
2022-07-29T22:48:23.040Z,99198.91
2022-07-29T22:50:49.686Z,99207.97
2022-07-29T22:53:16.345Z,99205.09
2022-07-29T22:55:42.869Z,99196.03
2022-07-29T22:58:11.114Z,99200.81
2022-07-29T23:00:37.677Z,99200.06
2022-07-29T23:03:04.416Z,99198.19
2022-07-29T23:05:30.870Z,99196.75
2022-07-29T23:07:57.667Z,99193.19
2022-07-29T23:10:24.250Z,99197.06
2022-07-29T23:12:50.738Z,99190.72
2022-07-29T23:15:18.227Z,99187.13
2022-07-29T23:17:44.783Z,99188.00
2022-07-29T23:20:11.753Z,99186.25
2022-07-29T23:22:41.559Z,99186.25
2022-07-29T23:25:08.132Z,99191.88
2022-07-29T23:27:34.644Z,99186.69
2022-07-29T23:30:01.229Z,99182.63
2022-07-29T23:32:27.794Z,99182.78
2022-07-29T23:34:54.297Z,99181.31
2022-07-29T23:37:20.802Z,99177.00
2022-07-29T23:39:47.378Z,99182.78
2022-07-29T23:42:13.948Z,99168.25
2022-07-29T23:44:40.423Z,99170.28
2022-07-29T23:47:06.961Z,99166.66
2022-07-29T23:49:33.474Z,99173.13
2022-07-29T23:51:59.965Z,99175.16
2022-07-29T23:54:26.474Z,99166.22
2022-07-29T23:56:52.984Z,99183.75
2022-07-29T23:59:19.453Z,99204.31
